Impacts TAF Board
For situational awareness. Not to be used for flight planning purposes.
IDs:

KSAN - San Diego Intl Arpt, CA, US

Issued at 1739 UTC 23 Sep 2018
Updated at 1936 UTC 23 Sep 2018
Potential Impact None Slight Moderate High
Time1851Z 23/20Z 23/21Z 23/22Z 23/23Z 24/00Z 24/01Z 24/02Z 24/03Z 24/04Z 24/05Z 24/06Z 24/07Z 24/08Z>>
Type OBS PRVL PRVL PRVL PRVL PRVL PRVL PRVL PRVL PRVL PRVL PRVL PRVL PRVL
VIS 10 >6 >6 >6 >6 >6 >6 >6 >6 >6 >6 >6 >6 >6
CIG -- -- -- -- -- -- -- -- -- -- -- 15 15 15
Cover SCT SKC SKC SKC SKC SKC SKC SKC SCT SCT SCT OVC OVC OVC
FltCat VFR VFR VFR VFR VFR VFR VFR VFR VFR VFR VFR MVFR MVFR MVFR
WX -- -- -- -- -- -- -- -- -- -- -- -- -- --
WDir VRB 290 290 290 290 290 290 290 310 310 310 VRB VRB VRB
WSpd 6 11 11 11 11 11 11 11 5 5 5 4 4 4
WGst -- -- -- -- -- -- -- -- -- -- -- -- -- --
Raw TAF
KSAN 231739Z 2318/2424 29011KT P6SM SKC
  FM240300 31005KT P6SM SCT015
  FM240600 VRB04KT P6SM OVC015
  FM241700 VRB04KT P6SM SCT017
  FM241900 29011KT P6SM SKC


Raw METAR
KSAN 231851Z VRB06KT 10SM FEW015 SCT060 23/17 A2993 RMK AO2 SLP134 T02330167
KSAN 231817Z 30004KT 10SM SCT017 23/17 A2993 RMK AO2 T02330167
KSAN 231751Z VRB03KT 10SM BKN017 23/17 A2994 RMK AO2 SLP137 T02280167 10233 20200 50001
KSAN 231651Z 29006KT 10SM BKN017 22/17 A2995 RMK AO2 SLP140 T02170167

METAR Board
Radar Display
Forecast Discussion
For situational awareness. Not to be used for flight planning purposes.